createdAt,value
2022-12-05T00:00:03.164Z,43.40
2022-12-05T00:01:03.169Z,43.40
2022-12-05T00:02:03.011Z,39.20
2022-12-05T00:03:03.267Z,39.20
2022-12-05T00:04:03.487Z,39.20
2022-12-05T00:05:02.807Z,39.20
2022-12-05T00:06:03.395Z,39.20
2022-12-05T00:07:02.126Z,45.60
2022-12-05T00:08:02.389Z,45.60
2022-12-05T00:09:02.332Z,45.60
2022-12-05T00:10:02.320Z,45.60
2022-12-05T00:11:02.031Z,45.60
2022-12-05T00:12:02.594Z,41.30
2022-12-05T00:13:02.303Z,41.30
2022-12-05T00:14:02.412Z,41.30
2022-12-05T00:15:02.099Z,41.30
2022-12-05T00:16:02.631Z,41.30
2022-12-05T00:17:02.680Z,41.60
2022-12-05T00:18:02.254Z,41.60
2022-12-05T00:19:02.502Z,41.60
2022-12-05T00:20:02.785Z,41.60
2022-12-05T00:21:02.625Z,41.60
2022-12-05T00:22:02.471Z,40.50
2022-12-05T00:23:02.547Z,40.50
2022-12-05T00:24:02.587Z,40.50
2022-12-05T00:25:02.536Z,40.50
2022-12-05T00:26:02.851Z,40.50
2022-12-05T00:27:03.051Z,40.90
2022-12-05T00:28:03.020Z,40.90
2022-12-05T00:29:03.232Z,40.90
2022-12-05T00:30:02.724Z,40.90
2022-12-05T00:31:03.303Z,40.90
2022-12-05T00:32:02.053Z,39.10
2022-12-05T00:33:02.255Z,39.10
2022-12-05T00:34:02.072Z,39.10
2022-12-05T00:35:02.508Z,39.10
2022-12-05T00:36:02.404Z,39.10
2022-12-05T00:37:02.599Z,43.40
2022-12-05T00:38:02.731Z,43.40
2022-12-05T00:39:02.605Z,43.40
2022-12-05T00:40:02.366Z,43.40
2022-12-05T00:41:02.398Z,43.40
2022-12-05T00:42:02.369Z,40.40
2022-12-05T00:43:02.546Z,40.40
2022-12-05T00:44:02.419Z,40.40
2022-12-05T00:45:02.303Z,40.40
2022-12-05T00:46:02.828Z,40.40
2022-12-05T00:47:02.582Z,42.60
2022-12-05T00:48:03.027Z,42.60
2022-12-05T00:49:02.667Z,42.60
2022-12-05T00:50:02.879Z,42.60
2022-12-05T00:51:02.608Z,42.60
2022-12-05T00:52:02.106Z,42.00
2022-12-05T00:53:02.084Z,42.00
2022-12-05T00:54:02.105Z,42.00
2022-12-05T00:55:02.254Z,42.00
2022-12-05T00:56:02.210Z,42.00
2022-12-05T00:57:02.631Z,40.70
2022-12-05T00:58:03.193Z,40.70
2022-12-05T00:59:02.705Z,40.70
2022-12-05T01:00:02.733Z,40.70
2022-12-05T01:01:02.877Z,40.70
2022-12-05T01:02:02.295Z,40.60
2022-12-05T01:03:02.141Z,40.60
2022-12-05T01:04:02.136Z,40.60
2022-12-05T01:05:02.205Z,40.60
2022-12-05T01:06:02.100Z,40.60
2022-12-05T01:07:01.774Z,38.50
2022-12-05T01:08:02.098Z,38.50
2022-12-05T01:09:02.349Z,38.50
2022-12-05T01:10:02.044Z,38.50
2022-12-05T01:11:02.213Z,38.50
2022-12-05T01:12:02.049Z,36.70
2022-12-05T01:13:02.395Z,36.70
2022-12-05T01:14:02.019Z,36.70
2022-12-05T01:15:01.972Z,36.70
2022-12-05T01:16:02.394Z,36.70
2022-12-05T01:17:02.158Z,39.90
2022-12-05T01:18:02.356Z,39.90
2022-12-05T01:19:02.375Z,39.90
2022-12-05T01:20:02.209Z,39.90
2022-12-05T01:21:02.076Z,39.90
2022-12-05T01:22:01.784Z,40.40
2022-12-05T01:23:01.962Z,40.40
2022-12-05T01:24:02.041Z,40.40
2022-12-05T01:25:01.459Z,40.40
2022-12-05T01:26:01.636Z,40.40
2022-12-05T01:27:02.443Z,41.30
2022-12-05T01:28:02.135Z,41.30
2022-12-05T01:29:02.577Z,41.30
2022-12-05T01:30:02.187Z,41.30
2022-12-05T01:31:02.334Z,41.30
2022-12-05T01:32:02.109Z,43.90
2022-12-05T01:33:02.466Z,43.90
2022-12-05T01:34:02.132Z,43.90
2022-12-05T01:35:01.932Z,43.90
2022-12-05T01:36:02.026Z,43.90
2022-12-05T01:37:02.581Z,40.60
2022-12-05T01:38:02.703Z,40.60
2022-12-05T01:39:02.579Z,40.60
2022-12-05T01:40:02.348Z,40.60
2022-12-05T01:41:02.277Z,40.60
2022-12-05T01:42:01.564Z,38.10
2022-12-05T01:43:01.869Z,38.10
2022-12-05T01:44:01.678Z,38.10
2022-12-05T01:45:01.557Z,38.10
2022-12-05T01:46:01.921Z,38.10
2022-12-05T01:47:02.496Z,40.30
2022-12-05T01:48:02.679Z,40.30
2022-12-05T01:49:02.187Z,40.30
2022-12-05T01:50:02.198Z,40.30
2022-12-05T01:51:02.736Z,40.30
2022-12-05T01:52:01.715Z,37.40
2022-12-05T01:53:01.483Z,37.40
2022-12-05T01:54:01.560Z,37.40
2022-12-05T01:55:01.493Z,37.40
2022-12-05T01:56:01.351Z,37.40
2022-12-05T01:57:01.780Z,35.60
2022-12-05T01:58:02.158Z,35.60
2022-12-05T01:59:01.740Z,35.60
2022-12-05T02:00:01.654Z,35.60
2022-12-05T02:01:01.568Z,35.60
2022-12-05T02:02:02.907Z,36.60
2022-12-05T02:03:02.922Z,36.60
2022-12-05T02:04:03.250Z,36.60
2022-12-05T02:05:02.754Z,36.60
2022-12-05T02:06:02.768Z,36.60
2022-12-05T02:07:03.300Z,35.70
2022-12-05T02:08:03.405Z,35.70
2022-12-05T02:09:03.610Z,35.70
2022-12-05T02:10:03.144Z,35.70
2022-12-05T02:11:03.164Z,35.70
2022-12-05T02:12:02.534Z,33.80
2022-12-05T02:13:02.856Z,33.80
2022-12-05T02:14:02.435Z,33.80
2022-12-05T02:15:02.374Z,33.80
2022-12-05T02:16:02.999Z,33.80
2022-12-05T02:17:03.538Z,32.30
2022-12-05T02:18:03.483Z,32.30
2022-12-05T02:19:03.538Z,32.30
2022-12-05T02:20:03.415Z,32.30
2022-12-05T02:21:03.089Z,32.30
2022-12-05T02:22:03.604Z,34.20
2022-12-05T02:23:03.810Z,34.20
2022-12-05T02:24:03.868Z,34.20
2022-12-05T02:25:03.483Z,34.20
2022-12-05T02:26:03.651Z,34.20
2022-12-05T02:27:02.994Z,36.80
2022-12-05T02:28:03.457Z,36.80
2022-12-05T02:29:03.119Z,36.80
2022-12-05T02:30:03.054Z,36.80
2022-12-05T02:31:03.129Z,36.80
2022-12-05T02:32:02.842Z,35.80
2022-12-05T02:33:02.621Z,35.80
2022-12-05T02:34:02.790Z,35.80
2022-12-05T02:35:02.793Z,35.80
2022-12-05T02:36:02.724Z,35.80
2022-12-05T02:37:03.381Z,31.70
2022-12-05T02:38:03.061Z,31.70
2022-12-05T02:40:03.076Z,31.70
2022-12-05T02:41:03.144Z,31.70
2022-12-05T02:42:02.760Z,32.00
2022-12-05T02:43:02.207Z,32.00
2022-12-05T02:44:02.733Z,32.00
2022-12-05T02:45:02.663Z,32.00
2022-12-05T02:46:02.888Z,32.00
2022-12-05T02:47:03.200Z,32.60
2022-12-05T02:48:03.031Z,32.60
2022-12-05T02:49:02.991Z,32.60
2022-12-05T02:50:02.970Z,32.60
2022-12-05T02:51:02.767Z,32.60
2022-12-05T02:52:03.253Z,31.50
2022-12-05T02:53:02.997Z,31.50
2022-12-05T02:54:03.375Z,31.50
2022-12-05T02:55:03.372Z,31.50
2022-12-05T02:56:03.089Z,31.50
2022-12-05T02:57:03.716Z,29.40
2022-12-05T02:58:03.357Z,29.40
2022-12-05T02:59:03.262Z,29.40
2022-12-05T03:00:03.200Z,29.40
2022-12-05T03:01:03.462Z,29.40
2022-12-05T03:02:03.179Z,28.50
2022-12-05T03:03:02.915Z,28.50
2022-12-05T03:04:02.854Z,28.50
2022-12-05T03:05:02.824Z,28.50
2022-12-05T03:06:02.754Z,28.50
2022-12-05T03:07:03.213Z,28.50
2022-12-05T03:08:03.437Z,28.50
2022-12-05T03:09:02.954Z,28.50
2022-12-05T03:10:02.872Z,28.50
2022-12-05T03:11:03.324Z,28.50
2022-12-05T03:12:02.271Z,32.70
2022-12-05T03:13:02.884Z,32.70
2022-12-05T03:14:02.796Z,32.70
2022-12-05T03:15:02.764Z,32.70
2022-12-05T03:16:02.675Z,32.70
2022-12-05T03:17:02.654Z,28.80
2022-12-05T03:18:03.057Z,28.80
2022-12-05T03:19:02.957Z,28.80
2022-12-05T03:20:02.576Z,28.80
2022-12-05T03:21:03.177Z,28.80
2022-12-05T03:22:02.816Z,27.00
2022-12-05T03:23:03.379Z,27.00
2022-12-05T03:24:03.048Z,27.00
2022-12-05T03:25:03.033Z,27.00
2022-12-05T03:26:02.949Z,27.00
2022-12-05T03:27:02.372Z,26.80
2022-12-05T03:28:02.259Z,26.80
2022-12-05T03:29:02.143Z,26.80
2022-12-05T03:30:02.260Z,26.80
2022-12-05T03:31:02.163Z,26.80
2022-12-05T03:32:02.295Z,26.70
2022-12-05T03:33:02.209Z,26.70
2022-12-05T03:34:02.067Z,26.70
2022-12-05T03:35:02.298Z,26.70
2022-12-05T03:36:02.510Z,26.70
2022-12-05T03:37:02.608Z,27.50
2022-12-05T03:38:02.610Z,27.50
2022-12-05T03:39:02.510Z,27.50
2022-12-05T03:40:02.642Z,27.50
2022-12-05T03:41:02.232Z,27.50
2022-12-05T03:42:02.084Z,26.90
2022-12-05T03:43:02.130Z,26.90
2022-12-05T03:44:02.298Z,26.90
2022-12-05T03:45:02.613Z,26.90
2022-12-05T03:46:02.352Z,26.90
2022-12-05T03:47:02.760Z,28.20
2022-12-05T03:48:02.675Z,28.20
2022-12-05T03:49:02.582Z,28.20
2022-12-05T03:50:02.578Z,28.20
2022-12-05T03:51:02.502Z,28.20
2022-12-05T03:52:02.455Z,27.80
2022-12-05T03:54:02.345Z,27.80
2022-12-05T03:55:02.852Z,27.80
2022-12-05T03:56:02.849Z,27.80
2022-12-05T03:57:02.245Z,28.50
2022-12-05T03:58:01.859Z,28.50
2022-12-05T03:59:01.760Z,28.50
2022-12-05T04:00:02.113Z,28.50
2022-12-05T04:01:02.296Z,28.50
2022-12-05T04:02:03.011Z,25.80
2022-12-05T04:03:03.071Z,25.80
2022-12-05T04:04:03.284Z,25.80
2022-12-05T04:05:03.320Z,25.80
2022-12-05T04:06:03.245Z,25.80
2022-12-05T04:07:02.179Z,26.90
2022-12-05T04:08:02.237Z,26.90
2022-12-05T04:09:02.719Z,26.90
2022-12-05T04:10:02.137Z,26.90
2022-12-05T04:11:02.176Z,26.90
2022-12-05T04:12:02.490Z,25.40
2022-12-05T04:13:02.380Z,25.40
2022-12-05T04:14:02.955Z,25.40
2022-12-05T04:15:02.589Z,25.40
2022-12-05T04:16:02.499Z,25.40
2022-12-05T04:17:03.258Z,26.40
2022-12-05T04:18:02.939Z,26.40
2022-12-05T04:19:03.073Z,26.40
2022-12-05T04:20:02.623Z,26.40
2022-12-05T04:21:02.819Z,26.40
2022-12-05T04:22:02.366Z,25.10
2022-12-05T04:23:02.463Z,25.10
2022-12-05T04:24:02.349Z,25.10
2022-12-05T04:25:02.229Z,25.10
2022-12-05T04:26:02.812Z,25.10
2022-12-05T04:27:02.900Z,23.00
2022-12-05T04:28:02.571Z,23.00
2022-12-05T04:29:02.459Z,23.00
2022-12-05T04:30:02.358Z,23.00
2022-12-05T04:31:02.414Z,23.00
2022-12-05T04:32:02.097Z,22.20
2022-12-05T04:33:02.023Z,22.20
2022-12-05T04:34:02.277Z,22.20
2022-12-05T04:35:02.207Z,22.20
2022-12-05T04:36:02.239Z,22.20
2022-12-05T04:37:02.159Z,24.60
2022-12-05T04:38:02.441Z,24.60
2022-12-05T04:39:02.004Z,24.60
2022-12-05T04:40:02.269Z,24.60
2022-12-05T04:41:02.161Z,24.60
2022-12-05T04:42:02.639Z,26.10
2022-12-05T04:43:02.529Z,26.10
2022-12-05T04:44:03.111Z,26.10
2022-12-05T04:45:02.748Z,26.10
2022-12-05T04:46:02.692Z,26.10
2022-12-05T04:47:02.235Z,24.10
2022-12-05T04:48:02.156Z,24.10
2022-12-05T04:49:02.020Z,24.10
2022-12-05T04:50:01.909Z,24.10
2022-12-05T04:51:02.172Z,24.10
2022-12-05T04:52:02.177Z,24.20
2022-12-05T04:53:02.104Z,24.20
2022-12-05T04:54:01.965Z,24.20
2022-12-05T04:55:01.968Z,24.20
2022-12-05T04:56:01.880Z,24.20
2022-12-05T04:57:02.424Z,19.80
2022-12-05T04:58:02.016Z,19.80
2022-12-05T04:59:02.612Z,19.80
2022-12-05T05:00:02.255Z,19.80
2022-12-05T05:01:02.359Z,19.80
2022-12-05T05:02:02.847Z,21.00
2022-12-05T05:03:02.851Z,21.00
2022-12-05T05:04:02.657Z,21.00
2022-12-05T05:05:03.263Z,21.00
2022-12-05T05:06:02.896Z,19.40
2022-12-05T05:07:02.522Z,19.40
2022-12-05T05:08:02.496Z,19.40
2022-12-05T05:09:02.285Z,19.40
2022-12-05T05:10:02.722Z,19.40
2022-12-05T05:11:02.601Z,20.80
2022-12-05T05:12:03.004Z,20.80
2022-12-05T05:13:02.845Z,20.80
2022-12-05T05:14:02.828Z,20.80
2022-12-05T05:15:02.733Z,20.80
2022-12-05T05:16:03.297Z,20.80
2022-12-05T05:17:02.727Z,20.80
2022-12-05T05:18:02.335Z,20.80
2022-12-05T05:19:02.916Z,20.80
2022-12-05T05:20:02.745Z,20.80
2022-12-05T05:21:02.594Z,21.90
2022-12-05T05:22:02.889Z,21.90
2022-12-05T05:23:02.927Z,21.90
2022-12-05T05:24:02.818Z,21.90
2022-12-05T05:25:02.659Z,21.90
2022-12-05T05:26:02.541Z,20.90
2022-12-05T05:27:03.113Z,20.90
2022-12-05T05:28:03.007Z,20.90
2022-12-05T05:29:02.889Z,20.90
2022-12-05T05:30:02.790Z,20.90
2022-12-05T05:31:03.258Z,19.60
2022-12-05T05:32:02.796Z,19.60
2022-12-05T05:33:02.693Z,19.60
2022-12-05T05:34:09.170Z,19.60
2022-12-05T05:35:02.790Z,19.60
2022-12-05T05:36:02.609Z,22.40
2022-12-05T05:37:02.300Z,22.40
2022-12-05T05:38:02.209Z,22.40
2022-12-05T05:39:02.123Z,22.40
2022-12-05T05:40:06.254Z,22.40
2022-12-05T05:41:02.312Z,20.90
2022-12-05T05:42:02.905Z,20.90
2022-12-05T05:43:02.839Z,20.90
2022-12-05T05:44:02.716Z,20.90
2022-12-05T05:45:02.460Z,20.90
2022-12-05T05:46:02.635Z,20.80
2022-12-05T05:47:02.996Z,20.80
2022-12-05T05:48:02.902Z,20.80
2022-12-05T05:49:02.925Z,20.80
2022-12-05T05:50:02.855Z,20.80
2022-12-05T05:51:02.762Z,21.20
2022-12-05T05:52:02.387Z,21.20
2022-12-05T05:53:02.255Z,21.20
2022-12-05T05:54:02.160Z,21.20
2022-12-05T05:55:02.077Z,21.20
2022-12-05T05:56:02.472Z,23.80
2022-12-05T05:57:02.792Z,23.80
2022-12-05T05:58:02.716Z,23.80
2022-12-05T05:59:02.634Z,23.80
2022-12-05T06:00:02.799Z,23.80
2022-12-05T06:01:02.372Z,25.10
2022-12-05T06:02:02.504Z,25.10
2022-12-05T06:03:03.073Z,25.10
2022-12-05T06:04:02.553Z,25.10
2022-12-05T06:05:02.823Z,25.10
2022-12-05T06:06:02.546Z,23.70
2022-12-05T06:07:03.424Z,23.70
2022-12-05T06:08:03.377Z,23.70
2022-12-05T06:09:03.216Z,23.70
2022-12-05T06:10:03.351Z,23.70
2022-12-05T06:11:03.171Z,26.50
2022-12-05T06:12:03.026Z,26.50
2022-12-05T06:13:02.796Z,26.50
2022-12-05T06:14:02.622Z,26.50
2022-12-05T06:15:02.455Z,26.50
2022-12-05T06:16:02.741Z,98.50
2022-12-05T06:17:02.922Z,98.50
2022-12-05T06:18:02.815Z,98.50
2022-12-05T06:19:03.357Z,98.50
2022-12-05T06:20:02.893Z,98.50
2022-12-05T06:21:03.198Z,28.50
2022-12-05T06:22:02.028Z,28.50
2022-12-05T06:23:02.549Z,28.50
2022-12-05T06:24:02.193Z,28.50
2022-12-05T06:25:02.520Z,28.50
2022-12-05T06:26:02.416Z,20.60
2022-12-05T06:27:02.908Z,20.60
2022-12-05T06:28:02.400Z,20.60
2022-12-05T06:29:02.431Z,20.60
2022-12-05T06:30:02.700Z,20.60
2022-12-05T06:31:02.992Z,17.40
2022-12-05T06:32:03.497Z,17.40
2022-12-05T06:33:03.082Z,17.40
2022-12-05T06:34:02.825Z,17.40
2022-12-05T06:35:03.280Z,17.40
2022-12-05T06:36:03.179Z,16.90
2022-12-05T06:37:02.648Z,16.90
2022-12-05T06:38:02.141Z,16.90
2022-12-05T06:39:02.035Z,16.90
2022-12-05T06:40:02.584Z,16.90
2022-12-05T06:41:02.264Z,19.20
2022-12-05T06:42:02.287Z,19.20
2022-12-05T06:43:02.728Z,19.20
2022-12-05T06:44:02.897Z,19.20
2022-12-05T06:45:02.559Z,19.20
2022-12-05T06:46:02.412Z,23.40
2022-12-05T06:47:02.354Z,23.40
2022-12-05T06:48:02.952Z,23.40
2022-12-05T06:49:02.618Z,23.40
2022-12-05T06:50:02.550Z,23.40
2022-12-05T06:51:02.756Z,26.20
2022-12-05T06:52:02.606Z,26.20
2022-12-05T06:53:03.107Z,26.20
2022-12-05T06:54:02.897Z,26.20
2022-12-05T06:55:02.960Z,26.20
2022-12-05T06:56:02.714Z,25.70
2022-12-05T06:57:02.291Z,25.70
2022-12-05T06:58:02.842Z,25.70
2022-12-05T06:59:02.291Z,25.70
2022-12-05T07:00:02.239Z,25.70
2022-12-05T07:01:02.567Z,27.60
2022-12-05T07:02:02.660Z,27.60
2022-12-05T07:03:03.141Z,27.60
2022-12-05T07:04:03.058Z,27.60
2022-12-05T07:05:02.484Z,27.60
2022-12-05T07:06:02.601Z,25.90
2022-12-05T07:07:02.742Z,25.90
2022-12-05T07:08:02.778Z,25.90
2022-12-05T07:09:02.848Z,25.90
2022-12-05T07:10:02.643Z,25.90
2022-12-05T07:11:02.623Z,29.10
2022-12-05T07:12:02.299Z,29.10
2022-12-05T07:13:02.228Z,29.10
2022-12-05T07:14:10.246Z,29.10
2022-12-05T07:15:02.100Z,29.10
2022-12-05T07:16:02.709Z,28.80
2022-12-05T07:17:02.397Z,28.80
2022-12-05T07:18:02.279Z,28.80
2022-12-05T07:19:02.252Z,28.80
2022-12-05T07:20:02.845Z,28.80
2022-12-05T07:21:15.439Z,31.10
2022-12-05T07:22:02.862Z,31.10
2022-12-05T07:23:02.853Z,31.10
2022-12-05T07:24:02.812Z,31.10
2022-12-05T07:25:02.797Z,31.10
2022-12-05T07:26:03.265Z,24.70
2022-12-05T07:27:02.192Z,24.70
2022-12-05T07:28:02.571Z,24.70
2022-12-05T07:29:02.335Z,24.70
2022-12-05T07:30:02.195Z,24.70
2022-12-05T07:31:01.896Z,24.80
2022-12-05T07:32:02.896Z,24.80
2022-12-05T07:33:02.527Z,24.80
2022-12-05T07:34:02.793Z,24.80
2022-12-05T07:35:02.747Z,24.80
2022-12-05T07:36:02.647Z,39.20
2022-12-05T07:37:02.636Z,39.20
2022-12-05T07:38:02.860Z,39.20
2022-12-05T07:39:02.875Z,39.20
2022-12-05T07:40:02.908Z,39.20
2022-12-05T07:41:02.729Z,31.30
2022-12-05T07:42:02.320Z,31.30
2022-12-05T07:43:02.197Z,31.30
2022-12-05T07:44:02.134Z,31.30
2022-12-05T07:45:02.095Z,31.30
2022-12-05T07:46:02.051Z,23.50
2022-12-05T07:47:02.739Z,23.50
2022-12-05T07:48:02.703Z,23.50
2022-12-05T07:49:02.718Z,23.50
2022-12-05T07:50:02.662Z,23.50
2022-12-05T07:51:02.619Z,25.10
2022-12-05T07:52:02.317Z,25.10
2022-12-05T07:53:02.265Z,25.10
2022-12-05T07:54:02.274Z,25.10
2022-12-05T07:55:02.288Z,25.10
2022-12-05T07:56:02.332Z,26.30
2022-12-05T07:57:02.343Z,26.30
2022-12-05T07:58:02.393Z,26.30
2022-12-05T07:59:02.418Z,26.30
2022-12-05T08:00:02.312Z,26.30
2022-12-05T08:01:02.450Z,24.50
2022-12-05T08:02:02.904Z,24.50
2022-12-05T08:03:02.860Z,24.50
2022-12-05T08:04:02.881Z,24.50
2022-12-05T08:05:02.913Z,24.50
2022-12-05T08:06:02.836Z,25.10
2022-12-05T08:07:03.259Z,25.10
2022-12-05T08:08:03.199Z,25.10
2022-12-05T08:09:03.150Z,25.10
2022-12-05T08:10:03.072Z,25.10
2022-12-05T08:11:02.975Z,29.30
2022-12-05T08:12:02.652Z,29.30
2022-12-05T08:13:02.731Z,29.30
2022-12-05T08:14:02.418Z,29.30
2022-12-05T08:15:02.388Z,29.30
2022-12-05T08:16:02.293Z,29.40
2022-12-05T08:17:02.969Z,29.40
2022-12-05T08:18:02.952Z,29.40
2022-12-05T08:19:02.901Z,29.40
2022-12-05T08:20:02.835Z,29.40
2022-12-05T08:21:02.766Z,28.80
2022-12-05T08:22:02.452Z,28.80
2022-12-05T08:23:02.562Z,28.80
2022-12-05T08:24:02.358Z,28.80
2022-12-05T08:25:02.405Z,28.80
2022-12-05T08:26:02.335Z,27.20
2022-12-05T08:27:03.037Z,27.20
2022-12-05T08:28:02.971Z,27.20
2022-12-05T08:29:03.119Z,27.20
2022-12-05T08:30:03.127Z,27.20
2022-12-05T08:31:02.786Z,28.70
2022-12-05T08:32:02.425Z,28.70
2022-12-05T08:33:02.380Z,28.70
2022-12-05T08:34:01.948Z,28.70
2022-12-05T08:35:02.013Z,28.70
2022-12-05T08:36:02.318Z,31.50
2022-12-05T08:37:03.120Z,31.50
2022-12-05T08:38:03.098Z,31.50
2022-12-05T08:39:02.596Z,31.50
2022-12-05T08:40:03.182Z,31.50
2022-12-05T08:41:02.994Z,29.20
2022-12-05T08:42:02.137Z,29.20
2022-12-05T08:43:02.234Z,29.20
2022-12-05T08:44:02.227Z,29.20
2022-12-05T08:45:01.847Z,29.20
2022-12-05T08:46:02.324Z,28.40
2022-12-05T08:47:03.007Z,28.40
2022-12-05T08:48:03.063Z,28.40
2022-12-05T08:49:02.773Z,28.40
2022-12-05T08:50:02.737Z,28.40
2022-12-05T08:51:02.785Z,27.60
2022-12-05T08:52:02.494Z,27.60
2022-12-05T08:53:02.361Z,27.60
2022-12-05T08:54:02.358Z,27.60
2022-12-05T08:55:02.452Z,27.60
2022-12-05T08:56:01.877Z,36.00
2022-12-05T08:57:02.668Z,36.00
2022-12-05T08:58:02.385Z,36.00
2022-12-05T08:59:05.546Z,36.00
2022-12-05T09:00:02.539Z,36.00
2022-12-05T09:01:02.501Z,45.00
2022-12-05T09:02:03.561Z,45.00
2022-12-05T09:03:04.297Z,45.00
2022-12-05T09:04:03.859Z,45.00
2022-12-05T09:05:25.824Z,45.00
2022-12-05T09:06:03.628Z,31.50
2022-12-05T09:07:03.198Z,31.50
2022-12-05T09:08:03.009Z,31.50
2022-12-05T09:09:02.989Z,31.50
2022-12-05T09:10:02.919Z,31.50
2022-12-05T09:11:02.865Z,28.70
2022-12-05T09:12:03.777Z,28.70
2022-12-05T09:13:03.562Z,28.70
2022-12-05T09:14:03.345Z,28.70
2022-12-05T09:15:02.944Z,28.70
2022-12-05T09:16:03.461Z,33.20
2022-12-05T09:17:02.479Z,33.20
2022-12-05T09:18:02.474Z,33.20
2022-12-05T09:19:02.901Z,33.20
2022-12-05T09:20:02.761Z,33.20
2022-12-05T09:21:03.122Z,33.70
2022-12-05T09:22:03.546Z,33.70
2022-12-05T09:23:03.372Z,33.70
2022-12-05T09:24:03.163Z,33.70
2022-12-05T09:25:03.556Z,33.70
2022-12-05T09:26:03.505Z,30.30
2022-12-05T09:27:02.443Z,30.30
2022-12-05T09:28:02.497Z,30.30
2022-12-05T09:29:02.443Z,30.30
2022-12-05T09:30:02.438Z,30.30
2022-12-05T09:31:03.079Z,25.30
2022-12-05T09:32:02.815Z,25.30
2022-12-05T09:33:03.472Z,25.30
2022-12-05T09:34:03.287Z,25.30
2022-12-05T09:35:03.289Z,25.30
2022-12-05T09:36:03.029Z,37.30
2022-12-05T09:37:23.247Z,37.30
2022-12-05T09:38:03.649Z,37.30
2022-12-05T09:39:03.339Z,37.30
2022-12-05T09:40:03.362Z,37.30
2022-12-05T09:41:03.539Z,32.30
2022-12-05T09:42:02.640Z,32.30
2022-12-05T09:43:02.760Z,32.30
2022-12-05T09:44:02.733Z,32.30
2022-12-05T09:45:02.751Z,32.30
2022-12-05T09:46:03.097Z,34.70
2022-12-05T09:47:03.088Z,34.70
2022-12-05T09:48:03.133Z,34.70
2022-12-05T09:49:03.232Z,34.70
2022-12-05T09:50:03.645Z,34.70
2022-12-05T09:51:03.200Z,27.90
2022-12-05T09:52:02.287Z,27.90
2022-12-05T09:53:02.226Z,27.90
2022-12-05T09:54:02.120Z,27.90
2022-12-05T09:55:02.675Z,27.90
2022-12-05T09:56:02.642Z,25.80
2022-12-05T09:57:02.695Z,25.80
2022-12-05T09:58:02.704Z,25.80
2022-12-05T09:59:03.052Z,25.80
2022-12-05T10:00:03.038Z,25.80
2022-12-05T10:01:02.698Z,25.50
2022-12-05T10:02:02.450Z,25.50
2022-12-05T10:03:02.859Z,25.50
2022-12-05T10:04:02.645Z,25.50
2022-12-05T10:05:03.172Z,25.50
2022-12-05T10:06:02.273Z,26.00
2022-12-05T10:07:02.711Z,26.00
2022-12-05T10:08:02.733Z,26.00
2022-12-05T10:09:02.572Z,26.00
2022-12-05T10:10:02.488Z,26.00
2022-12-05T10:11:02.247Z,29.50
2022-12-05T10:12:01.986Z,29.50
2022-12-05T10:13:01.876Z,29.50
2022-12-05T10:14:01.902Z,29.50
2022-12-05T10:15:02.395Z,29.50
2022-12-05T10:16:01.988Z,27.00
2022-12-05T10:17:02.078Z,27.00
2022-12-05T10:18:02.105Z,27.00
2022-12-05T10:19:02.053Z,27.00
2022-12-05T10:20:01.905Z,27.00
2022-12-05T10:21:01.894Z,32.40
2022-12-05T10:22:02.458Z,32.40
2022-12-05T10:23:02.452Z,32.40
2022-12-05T10:24:02.763Z,32.40
2022-12-05T10:25:02.777Z,32.40
2022-12-05T10:26:02.784Z,34.30
2022-12-05T10:27:02.568Z,34.30
2022-12-05T10:28:02.563Z,34.30
2022-12-05T10:29:02.549Z,34.30
2022-12-05T10:30:02.571Z,34.30
2022-12-05T10:31:02.497Z,32.10
2022-12-05T10:32:02.178Z,32.10
2022-12-05T10:33:06.454Z,32.10
2022-12-05T10:34:02.418Z,32.10
2022-12-05T10:35:02.321Z,32.10
2022-12-05T10:36:02.281Z,28.40
2022-12-05T10:37:02.869Z,28.40
2022-12-05T10:38:02.705Z,28.40
2022-12-05T10:39:07.009Z,28.40
2022-12-05T10:40:02.765Z,28.40
2022-12-05T10:41:02.765Z,26.20
2022-12-05T10:42:01.998Z,26.20
2022-12-05T10:43:01.861Z,26.20
2022-12-05T10:44:01.792Z,26.20
2022-12-05T10:45:02.041Z,26.20
2022-12-05T10:46:02.193Z,22.10
2022-12-05T10:47:02.793Z,22.10
2022-12-05T10:48:02.842Z,22.10
2022-12-05T10:49:02.522Z,22.10
2022-12-05T10:50:02.379Z,22.10
2022-12-05T10:51:02.309Z,23.20
2022-12-05T10:52:02.040Z,23.20
2022-12-05T10:53:02.022Z,23.20
2022-12-05T10:54:02.010Z,23.20
2022-12-05T10:55:01.981Z,23.20
2022-12-05T10:56:29.942Z,25.20
2022-12-05T10:57:02.188Z,25.20
2022-12-05T10:58:02.077Z,25.20
2022-12-05T10:59:02.063Z,25.20
2022-12-05T11:00:02.193Z,25.20
2022-12-05T11:01:02.250Z,24.00
2022-12-05T11:02:02.992Z,24.00
2022-12-05T11:03:02.673Z,24.00
2022-12-05T11:04:03.013Z,24.00
2022-12-05T11:05:03.155Z,24.00
2022-12-05T11:06:02.931Z,21.70
2022-12-05T11:07:03.064Z,21.70
2022-12-05T11:08:03.121Z,21.70
2022-12-05T11:09:05.180Z,21.70
2022-12-05T11:10:03.223Z,21.70
2022-12-05T11:11:02.862Z,23.80
2022-12-05T11:12:02.431Z,23.80
2022-12-05T11:13:02.383Z,23.80
2022-12-05T11:14:02.243Z,23.80
2022-12-05T11:15:02.215Z,23.80
2022-12-05T11:16:02.218Z,23.00
2022-12-05T11:17:02.881Z,23.00
2022-12-05T11:18:02.853Z,23.00
2022-12-05T11:19:02.821Z,23.00
2022-12-05T11:20:02.676Z,23.00
2022-12-05T11:21:02.622Z,19.30
2022-12-05T11:22:02.421Z,19.30
2022-12-05T11:23:02.285Z,19.30
2022-12-05T11:24:02.244Z,19.30
2022-12-05T11:25:02.536Z,19.30
2022-12-05T11:26:02.238Z,19.00
2022-12-05T11:27:02.899Z,19.00
2022-12-05T11:28:02.849Z,19.00
2022-12-05T11:29:02.610Z,19.00
2022-12-05T11:30:02.426Z,19.00
2022-12-05T11:31:03.049Z,22.00
2022-12-05T11:32:02.494Z,22.00
2022-12-05T11:33:02.400Z,22.00
2022-12-05T11:34:02.532Z,22.00
2022-12-05T11:35:02.140Z,22.00
2022-12-05T11:36:02.513Z,21.10
2022-12-05T11:37:02.770Z,21.10
2022-12-05T11:38:02.550Z,21.10
2022-12-05T11:39:02.434Z,21.10
2022-12-05T11:40:02.304Z,21.10
2022-12-05T11:41:02.382Z,21.60
2022-12-05T11:42:03.028Z,21.60
2022-12-05T11:43:03.107Z,21.60
2022-12-05T11:44:02.793Z,21.60
2022-12-05T11:45:02.706Z,21.60
2022-12-05T11:46:02.980Z,24.30
2022-12-05T11:47:02.955Z,24.30
2022-12-05T11:48:02.609Z,24.30
2022-12-05T11:49:02.572Z,24.30
2022-12-05T11:50:02.527Z,24.30
2022-12-05T11:51:02.642Z,19.80
2022-12-05T11:52:02.949Z,19.80
2022-12-05T11:53:02.633Z,19.80
2022-12-05T11:54:02.512Z,19.80
2022-12-05T11:55:05.489Z,19.80
2022-12-05T11:56:02.824Z,21.50
2022-12-05T11:57:03.156Z,21.50
2022-12-05T11:58:02.913Z,21.50
2022-12-05T11:59:02.594Z,21.50
2022-12-05T12:00:03.151Z,21.50
2022-12-05T12:01:02.992Z,21.40
2022-12-05T12:02:03.495Z,21.40
2022-12-05T12:03:03.127Z,21.40
2022-12-05T12:04:03.078Z,21.40
2022-12-05T12:05:02.933Z,21.40
2022-12-05T12:06:03.060Z,23.10
2022-12-05T12:07:02.083Z,23.10
2022-12-05T12:08:02.491Z,23.10
2022-12-05T12:09:02.559Z,23.10
2022-12-05T12:10:05.838Z,23.10
2022-12-05T12:11:02.326Z,23.30
2022-12-05T12:12:02.147Z,23.30
2022-12-05T12:13:02.373Z,23.30
2022-12-05T12:14:02.397Z,23.30
2022-12-05T12:15:02.794Z,23.30
2022-12-05T12:16:07.994Z,20.00
2022-12-05T12:17:02.594Z,20.00
2022-12-05T12:18:03.077Z,20.00
2022-12-05T12:19:02.947Z,20.00
2022-12-05T12:20:02.833Z,20.00
2022-12-05T12:21:02.897Z,32.60
2022-12-05T12:22:03.018Z,32.60
2022-12-05T12:23:02.125Z,32.60
2022-12-05T12:24:02.084Z,32.60
2022-12-05T12:25:02.655Z,32.60
2022-12-05T12:26:02.168Z,24.30
2022-12-05T12:27:02.046Z,24.30
2022-12-05T12:28:04.595Z,24.30
2022-12-05T12:29:02.280Z,24.30
2022-12-05T12:30:02.316Z,24.30
2022-12-05T12:31:02.873Z,26.60
2022-12-05T12:32:02.314Z,26.60
2022-12-05T12:33:02.956Z,26.60
2022-12-05T12:34:02.713Z,26.60
2022-12-05T12:35:02.607Z,26.60
2022-12-05T12:36:02.488Z,23.00
2022-12-05T12:37:02.633Z,23.00
2022-12-05T12:38:02.260Z,23.00
2022-12-05T12:39:02.160Z,23.00
2022-12-05T12:40:02.029Z,23.00
2022-12-05T12:41:01.902Z,24.50
2022-12-05T12:42:02.483Z,24.50
2022-12-05T12:43:02.139Z,24.50
2022-12-05T12:44:02.063Z,24.50
2022-12-05T12:45:02.310Z,24.50
2022-12-05T12:46:05.419Z,22.90
2022-12-05T12:47:01.994Z,22.90
2022-12-05T12:48:02.727Z,22.90
2022-12-05T12:49:02.693Z,22.90
2022-12-05T12:50:02.647Z,22.90
2022-12-05T12:51:02.549Z,24.70
2022-12-05T12:52:02.435Z,24.70
2022-12-05T12:53:02.106Z,24.70
2022-12-05T12:54:01.993Z,24.70